Time;durP1;ratioP1;P1;durP2;ratioP2;P2;SDS_P1;SDS_P2;PMS_P1;PMS_P2;Temp;Humidity;BMP_temperature;BMP_pressure;BME280_temperature;BME280_humidity;BME280_pressure;Samples;Min_cycle;Max_cycle;Signal;HPM_P1;HPM_P2
2023/06/21 00:00:59;;;;;;;;;;;;;;;22.25;38.49;101580.53;4991497;28;20046;-75
2023/06/21 00:03:43;;;;;;;2.20;0.80;;;;;;;22.13;38.08;101584.09;4989207;28;20004;-76
2023/06/21 00:06:13;;;;;;;4.30;0.90;;;;;;;22.07;38.50;101596.44;4984732;28;20069;-76
2023/06/21 00:08:41;;;;;;;2.47;0.90;;;;;;;21.89;38.07;101573.66;4983332;28;20529;-77
2023/06/21 00:11:12;;;;;;;4.18;1.20;;;;;;;21.85;39.37;101593.88;4985339;28;20638;-78
2023/06/21 00:13:40;;;;;;;3.95;0.88;;;;;;;21.73;39.73;101589.50;4988632;28;20057;-76
2023/06/21 00:16:09;;;;;;;1.70;0.70;;;;;;;21.65;37.03;101593.09;4991092;28;20046;-76
2023/06/21 00:18:37;;;;;;;1.73;0.50;;;;;;;21.47;37.05;101581.69;4984509;28;20074;-77
2023/06/21 00:21:06;;;;;;;1.80;0.68;;;;;;;21.27;37.31;101594.00;4981180;28;20199;-77
2023/06/21 00:23:34;;;;;;;2.17;0.63;;;;;;;21.10;37.89;101586.13;4984538;28;20050;-73
2023/06/21 00:26:05;;;;;;;4.60;0.60;;;;;;;21.01;37.91;101588.78;4987713;28;20046;-74
2023/06/21 00:28:36;;;;;;;3.10;0.80;;;;;;;20.91;38.61;101582.59;4984010;28;20053;-71
2023/06/21 00:31:08;;;;;;;1.55;0.85;;;;;;;20.81;39.38;101588.75;4984558;28;20456;-73
2023/06/21 00:33:37;;;;;;;2.00;0.80;;;;;;;20.72;39.81;101589.63;4985367;28;20074;-73
2023/06/21 00:36:08;;;;;;;2.67;0.90;;;;;;;20.59;39.49;101583.50;4988463;28;20056;-75
2023/06/21 00:38:37;;;;;;;2.10;0.57;;;;;;;20.50;40.26;101583.41;4979554;28;20568;-73
2023/06/21 00:41:06;;;;;;;2.72;0.40;;;;;;;20.41;40.69;101588.66;4986831;28;20077;-75
2023/06/21 00:43:37;;;;;;;4.25;0.90;;;;;;;20.33;40.61;101590.41;4986754;28;20086;-71
2023/06/21 00:46:13;;;;;;;1.95;0.73;;;;;;;20.21;41.76;101589.50;4982357;28;20093;-73
2023/06/21 00:48:43;;;;;;;0.90;0.50;;;;;;;20.09;42.83;101598.22;4986552;28;20977;-75
2023/06/21 00:51:13;;;;;;;2.03;0.68;;;;;;;19.98;42.67;101593.81;4984214;28;20112;-74
2023/06/21 00:53:47;;;;;;;1.38;0.70;;;;;;;19.87;43.16;101585.88;4984484;28;20090;-73
2023/06/21 00:56:17;;;;;;;1.55;0.73;;;;;;;19.71;44.02;101600.66;4987654;28;20050;-73
2023/06/21 00:58:48;;;;;;;1.92;0.50;;;;;;;19.45;44.06;101590.00;4987599;28;20054;-76
2023/06/21 01:01:16;;;;;;;1.17;0.60;;;;;;;19.37;45.76;101587.31;4984440;28;20616;-73
2023/06/21 01:03:48;;;;;;;4.50;0.80;;;;;;;19.34;45.82;101582.03;4987171;28;20049;-73
2023/06/21 01:06:24;;;;;;;1.52;0.47;;;;;;;19.32;47.90;101583.78;4987320;28;20562;-73
2023/06/21 01:09:05;;;;;;;3.90;1.08;;;;;;;19.24;46.18;101578.50;4985456;28;20076;-73
2023/06/21 01:11:45;;;;;;;7.40;1.38;;;;;;;19.12;45.97;101569.66;4984637;28;20050;-73
2023/06/21 01:14:29;;;;;;;1.58;0.60;;;;;;;19.08;46.77;101565.22;4985103;28;20054;-72
2023/06/21 01:16:58;;;;;;;3.53;0.85;;;;;;;19.18;48.26;101577.56;4985290;28;20121;-73
2023/06/21 01:19:35;;;;;;;1.48;0.50;;;;;;;19.18;48.92;101583.69;4986929;28;20054;-73
2023/06/21 01:22:19;;;;;;;4.32;0.73;;;;;;;19.21;48.64;101577.56;4986879;28;20500;-72
2023/06/21 01:25:06;;;;;;;1.88;0.90;;;;;;;19.24;49.12;101582.84;4986239;28;20142;-73
2023/06/21 01:27:48;;;;;;;1.80;0.63;;;;;;;19.25;46.70;101580.22;4987284;28;20042;-72
2023/06/21 01:30:21;;;;;;;1.90;0.50;;;;;;;19.26;48.90;101581.09;4988755;28;20042;-73
2023/06/21 01:32:53;;;;;;;2.83;0.85;;;;;;;19.23;49.05;101581.97;4985839;28;20508;-72
2023/06/21 01:35:22;;;;;;;2.28;0.45;;;;;;;19.11;48.65;101571.41;4982175;28;20089;-73
2023/06/21 01:37:51;;;;;;;2.13;0.70;;;;;;;19.16;48.50;101581.91;4986379;28;20069;-72
2023/06/21 01:40:20;;;;;;;1.85;0.77;;;;;;;19.17;48.69;101576.69;4984092;28;20050;-73
2023/06/21 01:42:51;;;;;;;0.70;0.50;;;;;;;19.20;48.47;101583.72;4986515;28;20567;-76
2023/06/21 01:45:23;;;;;;;1.40;0.65;;;;;;;19.21;49.04;101577.56;4989996;28;20073;-72
2023/06/21 01:47:52;;;;;;;2.83;0.60;;;;;;;19.22;49.68;101580.22;4985177;28;20469;-75
2023/06/21 01:50:25;;;;;;;2.30;0.60;;;;;;;19.25;49.67;101579.38;4985072;28;20088;-73
2023/06/21 01:52:56;;;;;;;1.75;0.70;;;;;;;19.27;49.07;101580.25;4987327;28;20096;-73
2023/06/21 01:55:26;;;;;;;1.75;0.70;;;;;;;19.29;48.46;101586.41;4985610;28;20117;-73
2023/06/21 01:57:56;;;;;;;0.88;0.40;;;;;;;19.31;48.93;101595.16;4988630;28;20046;-75
2023/06/21 02:00:26;;;;;;;2.65;0.50;;;;;;;19.33;49.22;101598.63;4978728;28;20057;-74
2023/06/21 02:02:59;;;;;;;2.95;0.50;;;;;;;19.36;48.91;101596.06;4984466;28;20052;-73
2023/06/21 02:05:28;;;;;;;1.00;0.60;;;;;;;19.45;51.06;101593.50;4984821;28;20674;-72
2023/06/21 02:07:57;;;;;;;2.58;0.70;;;;;;;19.54;50.15;101597.94;4983457;28;20054;-72
2023/06/21 02:10:33;;;;;;;1.88;0.82;;;;;;;19.67;50.23;101604.97;4983770;28;20054;-72
2023/06/21 02:13:01;;;;;;;3.63;0.50;;;;;;;19.81;50.56;101602.50;4985377;28;20083;-73
2023/06/21 02:15:32;;;;;;;1.63;0.50;;;;;;;19.91;48.56;101602.53;4984785;28;20046;-73
2023/06/21 02:18:01;;;;;;;2.00;0.52;;;;;;;20.00;47.86;101607.81;4983287;28;20046;-72
2023/06/21 02:20:31;;;;;;;1.98;0.60;;;;;;;20.08;48.13;101606.09;4984398;28;20887;-73
2023/06/21 02:23:00;;;;;;;1.60;0.52;;;;;;;20.13;48.31;101609.59;4987117;28;20050;-74
2023/06/21 02:25:30;;;;;;;1.73;0.50;;;;;;;20.15;47.76;101618.38;4988886;28;20053;-74
2023/06/21 02:27:58;;;;;;;4.72;0.80;;;;;;;20.15;48.05;101612.25;4987448;28;20055;-73
2023/06/21 02:30:27;;;;;;;3.08;0.60;;;;;;;20.11;47.50;101613.97;4981718;28;20058;-74
2023/06/21 02:32:57;;;;;;;0.52;0.35;;;;;;;20.11;49.04;101621.84;4983987;28;20054;-74
2023/06/21 02:35:26;;;;;;;1.40;0.60;;;;;;;20.10;49.22;101625.38;4986828;28;20053;-74
2023/06/21 02:37:55;;;;;;;2.17;0.40;;;;;;;20.10;47.93;101625.38;4989605;28;20054;-74
2023/06/21 02:40:24;;;;;;;1.95;0.52;;;;;;;20.09;48.57;101623.63;4988016;28;20530;-76
2023/06/21 02:42:52;;;;;;;0.60;0.28;;;;;;;20.06;48.53;101628.84;4989256;28;20050;-75
2023/06/21 02:45:23;;;;;;;1.65;0.50;;;;;;;20.01;48.88;101627.94;4987657;28;20476;-74
2023/06/21 02:47:52;;;;;;;0.57;0.40;;;;;;;19.99;47.25;101621.81;4987836;28;20120;-74
2023/06/21 02:50:22;;;;;;;1.65;0.40;;;;;;;19.95;47.48;101625.28;4988375;28;20054;-75
2023/06/21 02:52:51;;;;;;;0.60;0.40;;;;;;;19.88;47.65;101621.75;4987932;28;20133;-74
2023/06/21 02:55:20;;;;;;;1.92;0.50;;;;;;;19.81;47.98;101623.50;4989444;28;20058;-72
2023/06/21 02:57:48;;;;;;;1.77;1.05;;;;;;;19.74;47.54;101628.69;4988354;28;20043;-72
2023/06/21 03:00:23;;;;;;;1.02;0.52;;;;;;;19.64;47.70;101630.34;4988244;28;20053;-73
2023/06/21 03:02:52;;;;;;;1.85;0.30;;;;;;;19.57;48.73;101629.44;4986275;28;20054;-74
2023/06/21 03:05:33;;;;;;;4.13;0.70;;;;;;;19.50;48.39;101627.66;4985567;28;20060;-73
2023/06/21 03:08:04;;;;;;;1.85;0.52;;;;;;;19.45;49.19;101630.25;4988146;28;20829;-73
2023/06/21 03:10:33;;;;;;;1.10;0.40;;;;;;;19.40;48.67;101631.06;4989183;28;20559;-74
2023/06/21 03:13:02;;;;;;;2.20;0.50;;;;;;;19.35;48.51;101633.66;4988579;28;20145;-74
2023/06/21 03:15:30;;;;;;;2.60;0.40;;;;;;;19.28;48.76;101629.22;4986788;28;20054;-73
2023/06/21 03:17:59;;;;;;;1.02;0.70;;;;;;;19.24;49.55;101635.31;4984080;28;20130;-73
2023/06/21 03:20:29;;;;;;;1.73;0.70;;;;;;;19.17;50.03;101634.41;4986005;28;20054;-73
2023/06/21 03:22:58;;;;;;;1.65;0.50;;;;;;;19.09;50.62;101629.97;4987021;28;20128;-74
2023/06/21 03:25:28;;;;;;;1.02;0.60;;;;;;;19.01;51.61;101638.66;4986201;28;20050;-74
2023/06/21 03:27:59;;;;;;;1.98;0.52;;;;;;;18.93;51.34;101636.81;4989124;28;20123;-74
2023/06/21 03:30:28;;;;;;;2.50;0.60;;;;;;;18.87;51.99;101635.00;4988581;28;20094;-74
2023/06/21 03:32:57;;;;;;;0.73;0.45;;;;;;;18.82;52.04;101636.72;4988973;28;20058;-73
2023/06/21 03:35:28;;;;;;;1.30;0.50;;;;;;;18.73;52.16;101632.22;4984593;28;20084;-74
2023/06/21 03:38:15;;;;;;;2.75;0.65;;;;;;;18.63;52.33;101633.88;4994701;28;20444;-74
2023/06/21 03:40:52;;;;;;;2.13;0.90;;;;;;;18.57;55.43;101636.41;4993006;28;20042;-72
2023/06/21 03:43:21;;;;;;;3.40;1.17;;;;;;;18.50;55.75;101641.59;4996003;28;20051;-72
2023/06/21 03:45:50;;;;;;;2.70;0.98;;;;;;;18.42;55.54;101642.38;4994481;28;20165;-73
2023/06/21 03:48:18;;;;;;;0.80;0.55;;;;;;;18.36;54.29;101638.81;4999046;28;20117;-72
2023/06/21 03:50:47;;;;;;;3.58;0.52;;;;;;;18.27;55.82;101636.97;4997626;28;20160;-73
2023/06/21 03:53:18;;;;;;;2.38;0.70;;;;;;;18.18;55.37;101642.09;4986765;28;20101;-72
2023/06/21 03:55:46;;;;;;;5.75;0.90;;;;;;;18.10;55.77;101642.00;4989565;28;21342;-72
2023/06/21 03:58:15;;;;;;;1.95;0.65;;;;;;;18.03;55.72;101640.16;4993284;28;20050;-74
2023/06/21 04:00:43;;;;;;;1.52;0.60;;;;;;;17.93;56.52;101643.50;4989445;28;20050;-73
2023/06/21 04:03:20;;;;;;;2.22;0.85;;;;;;;17.80;57.07;101643.31;4987317;28;20455;-74
2023/06/21 04:05:49;;;;;;;1.60;0.73;;;;;;;17.69;59.02;101644.91;4986852;28;20047;-73
2023/06/21 04:08:19;;;;;;;2.03;0.50;;;;;;;17.63;59.49;101639.56;4988599;28;20057;-73
2023/06/21 04:10:47;;;;;;;2.83;0.93;;;;;;;17.54;58.88;101642.06;4990992;28;20077;-76
2023/06/21 04:13:17;;;;;;;1.35;0.85;;;;;;;17.46;58.61;101643.69;4985629;28;20046;-73
2023/06/21 04:15:46;;;;;;;5.28;0.70;;;;;;;17.40;59.21;101648.81;4988736;28;20119;-75
2023/06/21 04:18:14;;;;;;;2.95;0.82;;;;;;;17.31;60.19;101645.19;4990384;28;20075;-75
2023/06/21 04:20:43;;;;;;;1.60;0.75;;;;;;;17.25;59.51;101650.34;4984737;28;20054;-74
2023/06/21 04:23:12;;;;;;;2.25;0.60;;;;;;;17.17;60.71;101654.56;4986150;28;20074;-75
2023/06/21 04:25:42;;;;;;;2.08;0.90;;;;;;;17.09;61.40;101661.41;4985144;28;20054;-74
2023/06/21 04:28:11;;;;;;;3.00;0.95;;;;;;;17.00;61.33;101659.50;4989980;28;20046;-74
2023/06/21 04:30:41;;;;;;;1.15;0.98;;;;;;;16.91;65.91;101660.22;4988294;28;21171;-74
2023/06/21 04:33:10;;;;;;;2.33;0.60;;;;;;;16.79;63.97;101665.25;4983915;28;20051;-75
2023/06/21 04:35:40;;;;;;;1.67;0.60;;;;;;;16.69;63.04;101668.47;4983775;28;20054;-79
2023/06/21 04:38:08;;;;;;;5.22;1.05;;;;;;;16.66;63.51;101668.44;4972587;28;20051;-76
2023/06/21 04:40:37;;;;;;;2.90;0.75;;;;;;;16.60;64.94;101668.31;4968439;28;20114;-75
2023/06/21 04:43:09;;;;;;;1.05;0.60;;;;;;;16.53;64.81;101668.19;4959161;28;20058;-75
2023/06/21 04:45:38;;;;;;;2.10;0.55;;;;;;;16.50;64.49;101678.56;4964102;28;20047;-78
2023/06/21 04:48:09;;;;;;;6.57;0.93;;;;;;;16.45;65.46;101679.34;4969042;28;20047;-77
2023/06/21 04:50:39;;;;;;;0.57;0.43;;;;;;;16.38;65.35;101683.56;4968487;28;20548;-77
2023/06/21 04:53:07;;;;;;;2.63;0.73;;;;;;;16.34;65.23;101681.72;4964472;28;20054;-76
2023/06/21 04:55:36;;;;;;;1.45;0.60;;;;;;;16.23;66.62;101686.72;4974610;28;20138;-78
2023/06/21 04:58:05;;;;;;;2.50;0.90;;;;;;;16.15;69.22;101690.91;4969471;28;20422;-76
2023/06/21 05:00:38;;;;;;;1.73;0.63;;;;;;;16.10;70.71;101693.44;4965405;28;20571;-76
2023/06/21 05:03:07;;;;;;;1.33;0.60;;;;;;;16.08;69.25;101702.06;4962124;28;20054;-76
2023/06/21 05:05:36;;;;;;;4.25;1.05;;;;;;;16.04;69.09;101693.28;4965382;28;20141;-75
2023/06/21 05:08:06;;;;;;;7.75;1.10;;;;;;;15.97;69.60;101696.63;4970040;28;20047;-76
2023/06/21 05:10:34;;;;;;;3.40;0.82;;;;;;;15.89;70.69;101696.41;4963093;28;20125;-75
2023/06/21 05:13:03;;;;;;;1.40;0.70;;;;;;;15.85;70.92;101701.53;4964667;28;20523;-75
2023/06/21 05:15:32;;;;;;;4.57;1.58;;;;;;;15.84;71.39;101694.56;4966752;28;20509;-77
2023/06/21 05:18:05;;;;;;;2.90;0.60;;;;;;;15.80;71.85;101693.59;4965292;28;20062;-77
2023/06/21 05:20:38;;;;;;;5.68;1.63;;;;;;;15.76;71.58;101703.94;4966035;28;20078;-77
2023/06/21 05:23:07;;;;;;;2.75;0.60;;;;;;;15.68;71.29;101694.16;4967893;28;20050;-77
2023/06/21 05:25:35;;;;;;;1.42;0.80;;;;;;;15.66;71.56;101703.69;4968078;28;20142;-75
2023/06/21 05:28:04;;;;;;;1.80;0.45;;;;;;;15.59;71.97;101701.78;4967552;28;20053;-76
2023/06/21 05:30:33;;;;;;;3.28;0.90;;;;;;;15.53;72.53;101699.03;4971250;28;20074;-75
2023/06/21 05:33:05;;;;;;;3.17;0.60;;;;;;;15.49;73.49;101698.06;4963329;28;20047;-77
2023/06/21 05:35:33;;;;;;;;;;;;;;;15.46;73.75;101702.31;4968277;28;20707;-74
2023/06/21 05:38:02;;;;;;;1.08;0.57;;;;;;;15.44;74.36;101701.44;4979891;28;19953;-74
2023/06/21 05:40:30;;;;;;;1.10;0.50;;;;;;;15.40;74.60;101710.00;4983055;28;20055;-74
2023/06/21 05:43:01;;;;;;;3.17;0.70;;;;;;;15.37;74.29;101717.75;4980284;28;20097;-74
2023/06/21 05:45:29;;;;;;;2.95;0.60;;;;;;;15.33;74.70;101716.78;4985777;28;20504;-74
2023/06/21 05:47:59;;;;;;;2.20;0.80;;;;;;;15.29;74.00;101720.16;4984846;28;20526;-74
2023/06/21 05:50:30;;;;;;;2.55;0.88;;;;;;;15.25;74.02;101727.00;4977706;28;20134;-74
2023/06/21 05:53:03;;;;;;;1.00;0.65;;;;;;;15.22;74.19;101719.13;4987095;28;20085;-74
2023/06/21 05:55:32;;;;;;;1.35;0.70;;;;;;;15.17;74.22;101719.84;4985455;28;20065;-74
2023/06/21 05:58:01;;;;;;;1.83;0.63;;;;;;;15.12;74.92;101719.75;4981710;28;20125;-74
2023/06/21 06:00:31;;;;;;;2.83;0.85;;;;;;;15.05;75.69;101721.31;4980002;28;20101;-74
2023/06/21 06:03:01;;;;;;;1.40;0.70;;;;;;;15.01;76.73;101713.34;4987835;28;20051;-74
2023/06/21 06:05:34;;;;;;;2.08;0.63;;;;;;;14.96;76.16;101713.25;4983956;28;20052;-74
2023/06/21 06:08:03;;;;;;;1.48;0.85;;;;;;;14.92;77.11;101718.31;4982057;28;20043;-74
2023/06/21 06:10:31;;;;;;;3.22;0.75;;;;;;;14.87;77.77;101726.00;4986190;28;20050;-74
2023/06/21 06:13:00;;;;;;;3.28;0.77;;;;;;;14.84;77.59;101720.69;4985347;28;20050;-74
2023/06/21 06:15:29;;;;;;;2.67;1.20;;;;;;;14.84;78.13;101728.50;4993178;28;20090;-74
2023/06/21 06:17:57;;;;;;;0.77;0.40;;;;;;;14.80;78.76;101722.34;4991865;28;20054;-75
2023/06/21 06:20:26;;;;;;;1.77;0.68;;;;;;;14.73;79.74;101720.44;4997197;28;20448;-74
2023/06/21 06:22:56;;;;;;;1.13;0.65;;;;;;;14.66;80.95;101721.09;5000911;28;20042;-75
2023/06/21 06:25:26;;;;;;;0.57;0.50;;;;;;;14.62;82.13;101720.13;5008413;28;20047;-75
2023/06/21 06:27:55;;;;;;;2.75;0.65;;;;;;;14.59;81.71;101719.13;5004108;28;20060;-75
2023/06/21 06:30:24;;;;;;;3.42;0.70;;;;;;;14.58;81.55;101719.97;4990420;28;20547;-74
2023/06/21 06:32:52;;;;;;;2.33;0.63;;;;;;;14.52;82.61;101724.97;4985814;28;20050;-74
2023/06/21 06:35:21;;;;;;;3.58;0.70;;;;;;;14.49;82.23;101727.50;4989544;28;20054;-74
2023/06/21 06:37:49;;;;;;;1.20;0.70;;;;;;;14.42;81.73;101729.91;4984570;28;20205;-74
2023/06/21 06:40:20;;;;;;;1.27;0.73;;;;;;;14.40;82.31;101722.91;4988097;28;20057;-75
2023/06/21 06:42:48;;;;;;;1.48;0.90;;;;;;;14.37;82.44;101722.81;4988525;28;20495;-74
2023/06/21 06:45:17;;;;;;;1.10;0.73;;;;;;;14.33;83.71;101719.22;4986486;28;20048;-74
2023/06/21 06:47:45;;;;;;;1.10;0.60;;;;;;;14.33;84.64;101719.22;4991606;28;20136;-75
2023/06/21 06:50:14;;;;;;;4.57;1.17;;;;;;;14.34;84.72;101726.22;4988327;28;20046;-74
2023/06/21 06:52:42;;;;;;;3.13;0.80;;;;;;;14.30;83.40;101716.56;4983525;28;20077;-74
2023/06/21 06:55:11;;;;;;;2.58;1.00;;;;;;;14.33;83.69;101710.53;4991922;28;20046;-74
2023/06/21 06:57:41;;;;;;;3.13;1.05;;;;;;;14.32;83.77;101714.88;4987351;28;20085;-74
2023/06/21 07:00:12;;;;;;;1.02;0.50;;;;;;;14.29;84.20;101717.38;4985779;28;20242;-74
2023/06/21 07:02:41;;;;;;;3.53;0.93;;;;;;;14.27;84.68;101719.06;4989249;28;20046;-74
2023/06/21 07:05:10;;;;;;;1.73;0.75;;;;;;;14.24;84.50;101716.34;4984643;28;20504;-74
2023/06/21 07:07:38;;;;;;;1.05;0.73;;;;;;;14.17;84.51;101712.69;4984471;28;20058;-74
2023/06/21 07:10:08;;;;;;;1.20;0.57;;;;;;;14.15;84.45;101716.97;4986132;28;20054;-73
2023/06/21 07:12:36;;;;;;;1.20;0.73;;;;;;;14.12;84.39;101716.88;4985782;28;20065;-73
2023/06/21 07:15:08;;;;;;;2.97;0.43;;;;;;;14.09;84.36;101715.88;4985997;28;20047;-75
2023/06/21 07:17:36;;;;;;;0.75;0.63;;;;;;;14.04;85.09;101714.06;4987979;28;20051;-74
2023/06/21 07:20:08;;;;;;;3.80;0.93;;;;;;;14.03;85.04;101725.28;4985816;28;20050;-74
2023/06/21 07:22:36;;;;;;;1.00;0.63;;;;;;;14.00;85.17;101720.00;4986278;28;20101;-74
2023/06/21 07:25:06;;;;;;;0.95;0.70;;;;;;;13.96;85.70;101725.06;4986846;28;20060;-74
2023/06/21 07:27:35;;;;;;;2.42;0.63;;;;;;;13.92;85.69;101718.84;4987260;28;20050;-74
2023/06/21 07:30:05;;;;;;;1.83;0.63;;;;;;;13.90;87.17;101717.91;4992501;28;20054;-75
2023/06/21 07:32:35;;;;;;;1.92;0.60;;;;;;;13.86;86.78;101713.50;4985606;28;20504;-74
2023/06/21 07:35:04;;;;;;;1.58;0.77;;;;;;;13.86;86.54;101713.50;4984464;28;20057;-74
2023/06/21 07:37:36;;;;;;;2.55;0.82;;;;;;;13.86;87.28;101708.28;4988368;28;20054;-74
2023/06/21 07:40:06;;;;;;;0.40;0.40;;;;;;;13.85;86.48;101709.09;4983788;28;20061;-75
2023/06/21 07:42:34;;;;;;;0.90;0.55;;;;;;;13.86;86.70;101707.38;4986678;28;20801;-75
2023/06/21 07:45:03;;;;;;;1.35;0.50;;;;;;;13.85;86.54;101706.50;4989930;28;20061;-74
2023/06/21 07:47:31;;;;;;;1.73;0.70;;;;;;;13.84;86.74;101707.34;4986750;28;20644;-74
2023/06/21 07:50:02;;;;;;;1.35;0.80;;;;;;;13.79;86.99;101712.41;4985915;28;20109;-75
2023/06/21 07:52:30;;;;;;;0.40;0.40;;;;;;;13.77;86.96;101713.19;4982797;28;20085;-74
2023/06/21 07:54:59;;;;;;;2.83;0.77;;;;;;;13.75;86.65;101705.34;4988104;28;20050;-74
2023/06/21 07:57:27;;;;;;;2.63;0.77;;;;;;;13.71;86.27;101703.47;4988615;28;20052;-75
2023/06/21 08:00:00;;;;;;;2.53;0.90;;;;;;;13.67;86.36;101705.91;4984980;28;20568;-74
2023/06/21 08:02:29;;;;;;;2.95;0.73;;;;;;;13.62;85.51;101704.03;4982496;28;20129;-74
2023/06/21 08:04:57;;;;;;;6.60;0.70;;;;;;;13.58;86.39;101697.00;4985815;28;20060;-74
2023/06/21 08:07:27;;;;;;;1.95;0.90;;;;;;;13.55;86.32;101694.28;4985378;28;20054;-75
2023/06/21 08:09:56;;;;;;;1.35;0.90;;;;;;;13.48;86.69;101694.94;4985790;28;20136;-74
2023/06/21 08:12:25;;;;;;;1.90;0.88;;;;;;;13.44;87.56;101698.25;4984775;28;20050;-74
2023/06/21 08:14:53;;;;;;;2.80;0.80;;;;;;;13.41;87.52;101696.44;4981962;28;20054;-74
2023/06/21 08:17:22;;;;;;;1.63;0.77;;;;;;;13.39;87.92;101690.31;4988576;28;20054;-74
2023/06/21 08:19:50;;;;;;;3.28;0.90;;;;;;;13.35;87.19;101691.06;4978688;28;20046;-74
2023/06/21 08:22:20;;;;;;;0.85;0.70;;;;;;;13.30;87.05;101694.31;4985216;28;20054;-75
2023/06/21 08:24:54;;;;;;;1.75;0.80;;;;;;;13.27;86.81;101691.59;4982026;28;20072;-74
2023/06/21 08:27:23;;;;;;;0.90;0.80;;;;;;;13.20;87.87;101693.97;4985313;28;20168;-75
2023/06/21 08:29:51;;;;;;;1.92;0.90;;;;;;;13.20;87.89;101695.69;4982556;28;20515;-75
2023/06/21 08:32:27;;;;;;;1.95;0.70;;;;;;;13.19;87.18;101691.31;4986231;28;20130;-74
2023/06/21 08:34:58;;;;;;;1.45;0.70;;;;;;;13.16;86.46;101686.91;4984147;28;20058;-75
2023/06/21 08:37:26;;;;;;;0.75;0.60;;;;;;;13.14;86.86;101685.97;4988504;28;20117;-75
2023/06/21 08:39:57;;;;;;;1.75;1.00;;;;;;;13.12;86.16;101685.03;4987513;28;20053;-75
2023/06/21 08:42:26;;;;;;;4.15;1.08;;;;;;;13.10;86.49;101684.13;4984745;28;20056;-74
2023/06/21 08:44:58;;;;;;;2.50;0.90;;;;;;;13.08;85.89;101688.38;4987680;28;20046;-74
2023/06/21 08:47:28;;;;;;;1.65;0.88;;;;;;;13.07;86.91;101688.31;4984106;28;20050;-74
2023/06/21 08:50:00;;;;;;;2.05;0.73;;;;;;;13.05;86.67;101676.97;4985096;28;20058;-74
2023/06/21 08:52:30;;;;;;;1.73;1.05;;;;;;;13.00;86.48;101671.63;4985045;28;20046;-74
2023/06/21 08:55:09;;;;;;;2.03;1.00;;;;;;;12.99;87.46;101677.66;4983460;28;20046;-74
2023/06/21 08:57:43;;;;;;;2.75;0.77;;;;;;;12.97;87.65;101679.34;4984265;28;20112;-75
2023/06/21 09:00:14;;;;;;;1.13;0.65;;;;;;;12.95;87.70;101686.19;4987270;28;20103;-74
2023/06/21 09:02:52;;;;;;;3.73;1.20;;;;;;;12.91;87.08;101681.72;4982669;28;20106;-74
2023/06/21 09:05:34;;;;;;;5.75;1.02;;;;;;;12.89;87.14;101679.03;4985254;28;20129;-75
2023/06/21 09:08:04;;;;;;;4.03;1.08;;;;;;;12.84;86.77;101672.81;4982520;28;20042;-75
2023/06/21 09:10:37;;;;;;;3.92;0.98;;;;;;;12.79;86.98;101680.44;4981280;28;20039;-74
2023/06/21 09:13:08;;;;;;;7.60;1.13;;;;;;;12.74;87.38;101687.19;4989248;28;20464;-74
2023/06/21 09:15:38;;;;;;;3.47;1.00;;;;;;;12.70;87.06;101684.44;4980870;28;20050;-74
2023/06/21 09:18:07;;;;;;;3.28;1.13;;;;;;;12.67;87.21;101686.94;4982534;28;20061;-74
2023/06/21 09:20:36;;;;;;;3.30;0.90;;;;;;;12.64;87.47;101684.22;4984355;28;20058;-74
2023/06/21 09:23:05;;;;;;;2.17;0.95;;;;;;;12.60;87.94;101684.91;4981868;28;20760;-75
2023/06/21 09:25:36;;;;;;;2.97;1.27;;;;;;;12.54;87.39;101691.66;4981877;28;20050;-73
2023/06/21 09:28:05;;;;;;;2.72;1.00;;;;;;;12.52;88.09;101692.44;4987406;28;20068;-73
2023/06/21 09:30:34;;;;;;;4.80;1.20;;;;;;;12.50;88.25;101694.09;4981422;28;20047;-73
2023/06/21 09:33:03;;;;;;;1.58;0.85;;;;;;;12.46;88.71;101694.81;4988275;28;20031;-74
2023/06/21 09:35:33;;;;;;;1.20;0.70;;;;;;;12.42;89.28;101692.94;4983414;28;20058;-74
2023/06/21 09:38:02;;;;;;;1.85;0.82;;;;;;;12.34;89.71;101683.13;4987807;28;20054;-74
2023/06/21 09:40:44;;;;;;;1.20;0.60;;;;;;;12.30;88.96;101681.28;4989468;28;20667;-73
2023/06/21 09:43:12;;;;;;;3.13;1.03;;;;;;;12.27;89.14;101688.94;4980947;28;20061;-74
2023/06/21 09:45:47;;;;;;;2.38;0.82;;;;;;;12.22;90.10;101682.69;4990190;28;20142;-73
2023/06/21 09:48:16;;;;;;;1.77;0.80;;;;;;;12.20;90.17;101686.94;4987198;28;20129;-74
2023/06/21 09:50:46;;;;;;;0.98;0.60;;;;;;;12.19;90.33;101687.78;4989079;28;20058;-74
2023/06/21 09:53:23;;;;;;;2.00;0.90;;;;;;;12.17;90.13;101686.84;4991368;28;20492;-75
2023/06/21 09:55:55;;;;;;;2.42;0.85;;;;;;;12.15;90.32;101688.47;4989093;28;20618;-73
2023/06/21 09:58:24;;;;;;;2.33;0.65;;;;;;;12.12;90.68;101690.97;4987337;28;20113;-74
2023/06/21 10:00:53;;;;;;;3.60;1.00;;;;;;;12.10;90.57;101687.44;4988822;28;20065;-74
2023/06/21 10:03:24;;;;;;;0.85;0.63;;;;;;;12.08;91.10;101676.09;4985603;28;20066;-74
2023/06/21 10:05:57;;;;;;;2.35;0.68;;;;;;;12.06;90.72;101682.94;4989927;28;20142;-75
2023/06/21 10:08:26;;;;;;;3.95;0.70;;;;;;;12.00;90.65;101683.56;4990352;28;20500;-74
2023/06/21 10:10:57;;;;;;;2.20;0.80;;;;;;;11.99;90.46;101681.81;4987429;28;20121;-75
2023/06/21 10:13:33;;;;;;;1.23;0.80;;;;;;;11.97;91.01;101680.00;4987241;28;20055;-74
2023/06/21 10:16:02;;;;;;;2.28;0.80;;;;;;;11.98;91.62;101681.75;4986116;28;20133;-73
2023/06/21 10:18:33;;;;;;;5.97;1.02;;;;;;;11.94;92.27;101679.06;4985109;28;20054;-74
2023/06/21 10:21:04;;;;;;;2.17;0.82;;;;;;;11.93;92.89;101678.97;4990232;28;20579;-73
2023/06/21 10:23:34;;;;;;;1.63;0.60;;;;;;;11.88;92.27;101678.81;4985993;28;20517;-73
2023/06/21 10:26:07;;;;;;;6.45;0.85;;;;;;;11.86;92.17;101674.34;4983610;28;20492;-73
2023/06/21 10:28:39;;;;;;;0.88;0.70;;;;;;;11.80;92.21;101680.19;4990064;28;20050;-74
2023/06/21 10:31:11;;;;;;;1.60;0.80;;;;;;;11.77;91.73;101674.88;4986263;28;20035;-73
2023/06/21 10:33:40;;;;;;;0.38;0.30;;;;;;;11.74;91.57;101680.81;4994731;28;20047;-73
2023/06/21 10:36:14;;;;;;;0.68;0.50;;;;;;;11.70;92.15;101678.06;4991884;28;20053;-73
2023/06/21 10:38:46;;;;;;;1.42;0.57;;;;;;;11.68;92.50;101679.69;4988849;28;20062;-73
2023/06/21 10:41:17;;;;;;;1.92;0.90;;;;;;;11.67;92.28;101680.53;4989642;28;20044;-73
2023/06/21 10:43:53;;;;;;;5.20;0.80;;;;;;;11.64;92.37;101681.28;4986369;28;20524;-73
2023/06/21 10:46:22;;;;;;;3.75;0.93;;;;;;;11.61;92.62;101677.69;4986865;28;20054;-73
2023/06/21 10:48:54;;;;;;;1.88;0.82;;;;;;;11.59;92.05;101676.72;4985150;28;20065;-73
2023/06/21 10:51:24;;;;;;;0.70;0.50;;;;;;;11.53;92.08;101683.44;4989936;28;20054;-74
2023/06/21 10:53:54;;;;;;;2.67;0.60;;;;;;;11.47;92.19;101678.00;4984889;28;20133;-73
2023/06/21 10:56:27;;;;;;;2.28;0.77;;;;;;;11.45;92.01;101682.28;4985139;28;20054;-73
2023/06/21 10:58:58;;;;;;;1.92;1.15;;;;;;;11.42;92.88;101671.75;4981803;28;20046;-73
2023/06/21 11:01:27;;;;;;;2.70;0.95;;;;;;;11.39;92.35;101679.41;4986297;28;20493;-73
2023/06/21 11:03:55;;;;;;;1.67;0.80;;;;;;;11.39;93.15;101683.72;4985267;28;20069;-73
2023/06/21 11:06:26;;;;;;;1.38;0.70;;;;;;;11.35;92.44;101685.28;4988540;28;20104;-74
2023/06/21 11:08:55;;;;;;;0.95;0.60;;;;;;;11.32;92.68;101686.06;4989523;28;20042;-74
2023/06/21 11:11:33;;;;;;;1.30;0.77;;;;;;;11.32;93.29;101690.34;4988296;28;20108;-74
2023/06/21 11:14:05;;;;;;;3.90;0.68;;;;;;;11.32;92.05;101700.72;4990635;28;20080;-74
2023/06/21 11:16:39;;;;;;;2.17;0.80;;;;;;;11.30;92.22;101689.41;4986751;28;20234;-74
2023/06/21 11:19:10;;;;;;;1.55;0.80;;;;;;;11.29;92.14;101685.94;4989860;28;20084;-74
2023/06/21 11:21:44;;;;;;;1.50;0.75;;;;;;;11.26;92.65;101690.09;4987975;28;20079;-74
2023/06/21 11:24:20;;;;;;;3.83;0.90;;;;;;;11.24;92.66;101691.72;4987114;28;20043;-74
2023/06/21 11:27:03;;;;;;;2.33;0.90;;;;;;;11.17;92.29;101692.31;4986142;28;20088;-75
2023/06/21 11:29:42;;;;;;;3.85;1.00;;;;;;;11.16;92.53;101693.13;4989409;28;20495;-75
2023/06/21 11:32:12;;;;;;;1.08;0.70;;;;;;;11.14;92.76;101697.38;4989903;28;20046;-74
2023/06/21 11:34:56;;;;;;;1.73;1.13;;;;;;;11.09;92.64;101695.47;4987015;28;20050;-74
2023/06/21 11:37:39;;;;;;;4.28;1.10;;;;;;;11.07;92.23;101698.81;4987416;28;20065;-73
2023/06/21 11:40:11;;;;;;;0.93;0.80;;;;;;;11.02;93.02;101696.03;4983652;28;20054;-73
2023/06/21 11:42:47;;;;;;;2.00;1.30;;;;;;;10.99;93.50;101698.47;4981394;28;20271;-73